Time;durP1;ratioP1;P1;durP2;ratioP2;P2;SDS_P1;SDS_P2;PMS_P1;PMS_P2;Temp;Humidity;BMP_temperature;BMP_pressure;BME280_temperature;BME280_humidity;BME280_pressure;Samples;Min_cycle;Max_cycle;Signal;HPM_P1;HPM_P2
2023/08/10 00:01:26;;;;;;;0.40;0.20;;;;;;;21.85;56.46;95320.41;5088323;28;20961;-58
2023/08/10 00:03:54;;;;;;;0.50;0.30;;;;;;;21.99;56.54;95321.63;5112737;28;20987;-57
2023/08/10 00:06:24;;;;;;;0.40;0.30;;;;;;;21.87;57.85;95328.97;5114484;28;20475;-58
2023/08/10 00:08:52;;;;;;;0.40;0.30;;;;;;;21.81;58.31;95322.97;5112874;28;20625;-58
2023/08/10 00:11:21;;;;;;;0.40;0.30;;;;;;;21.54;58.10;95275.16;5114031;28;20447;-58
2023/08/10 00:13:49;;;;;;;0.40;0.30;;;;;;;21.90;57.56;95318.28;5113834;27;22301;-58
2023/08/10 00:16:17;;;;;;;0.40;0.30;;;;;;;22.02;56.81;95312.84;5113743;28;20444;-58
2023/08/10 00:18:46;;;;;;;0.40;0.20;;;;;;;21.97;56.93;95312.31;5113486;28;20458;-58
2023/08/10 00:21:14;;;;;;;0.40;0.30;;;;;;;21.93;56.84;95303.34;5113590;27;20443;-57
2023/08/10 00:23:44;;;;;;;1.27;0.53;;;;;;;21.55;57.48;95257.06;5113406;28;20436;-58
2023/08/10 00:26:13;;;;;;;0.40;0.27;;;;;;;21.70;57.55;95303.00;5113690;28;20961;-58
2023/08/10 00:28:41;;;;;;;0.50;0.30;;;;;;;21.67;57.44;95300.97;5112787;28;20436;-57
2023/08/10 00:31:09;;;;;;;0.50;0.30;;;;;;;21.60;57.70;95302.69;5113715;28;20488;-58
2023/08/10 00:33:38;;;;;;;0.43;0.30;;;;;;;21.75;57.32;95305.47;5112879;28;20481;-58
2023/08/10 00:36:07;;;;;;;0.40;0.27;;;;;;;21.69;58.56;95308.72;5113324;28;20440;-57
2023/08/10 00:38:38;;;;;;;0.50;0.30;;;;;;;21.76;58.29;95317.81;5113294;28;20470;-58
2023/08/10 00:41:09;;;;;;;0.40;0.20;;;;;;;21.81;58.19;95314.09;5099595;28;20861;-58
2023/08/10 00:43:37;;;;;;;4.80;0.50;;;;;;;21.46;58.33;95317.28;5113589;28;20431;-58
2023/08/10 00:46:08;;;;;;;0.67;0.67;;;;;;;21.01;59.28;95319.25;5112575;28;20795;-58
2023/08/10 00:48:37;;;;;;;2.20;0.73;;;;;;;20.72;60.67;95327.50;5103971;28;20480;-59
2023/08/10 00:51:05;;;;;;;0.50;0.40;;;;;;;20.67;61.26;95331.19;5099052;28;20583;-58
2023/08/10 00:53:34;;;;;;;0.90;0.63;;;;;;;20.02;63.71;95331.88;5113167;28;20463;-58
2023/08/10 00:56:04;;;;;;;0.50;0.50;;;;;;;20.07;64.38;95322.81;5112496;28;20921;-59
2023/08/10 00:58:34;;;;;;;0.80;0.77;;;;;;;19.59;65.47;95274.91;5112891;28;20450;-59
2023/08/10 01:01:02;;;;;;;0.50;0.43;;;;;;;20.40;64.71;95347.13;5112421;28;20427;-59
2023/08/10 01:03:31;;;;;;;0.73;0.47;;;;;;;20.43;64.88;95347.25;5112739;28;20855;-59
2023/08/10 01:06:07;;;;;;;0.40;0.23;;;;;;;21.07;61.95;95338.72;5112878;28;20840;-59
2023/08/10 01:08:43;;;;;;;0.70;0.50;;;;;;;20.81;62.96;95342.47;5112629;28;20451;-59
2023/08/10 01:11:26;;;;;;;0.50;0.40;;;;;;;20.42;64.10;95336.81;5112832;28;20435;-59
2023/08/10 01:14:04;;;;;;;0.50;0.40;;;;;;;20.37;64.56;95339.69;5112488;28;20861;-59
2023/08/10 01:16:34;;;;;;;0.50;0.40;;;;;;;20.66;64.19;95331.53;5112761;28;21025;-59
2023/08/10 01:19:11;;;;;;;0.40;0.27;;;;;;;20.66;63.84;95329.63;5111521;28;20496;-59
2023/08/10 01:21:51;;;;;;;0.40;0.33;;;;;;;20.95;64.04;95330.59;5111963;28;20523;-58
2023/08/10 01:24:26;;;;;;;0.40;0.20;;;;;;;21.10;63.70;95328.03;5112724;28;20448;-58
2023/08/10 01:26:56;;;;;;;0.40;0.30;;;;;;;21.27;62.47;95327.84;5112528;28;20512;-58
2023/08/10 01:29:25;;;;;;;0.40;0.30;;;;;;;21.18;62.76;95323.66;5112456;28;20436;-58
2023/08/10 01:31:53;;;;;;;0.50;0.30;;;;;;;21.07;61.98;95309.88;5112049;28;20467;-58
2023/08/10 01:34:22;;;;;;;0.40;0.30;;;;;;;20.97;62.95;95317.56;5111920;28;21008;-58
2023/08/10 01:36:51;;;;;;;0.50;0.33;;;;;;;20.87;63.08;95316.84;5111683;28;20436;-58
2023/08/10 01:39:20;;;;;;;0.40;0.30;;;;;;;21.10;61.81;95301.09;5112310;28;20440;-58
2023/08/10 01:41:48;;;;;;;0.40;0.20;;;;;;;21.21;62.51;95306.84;5112023;28;20436;-58
2023/08/10 01:44:18;;;;;;;0.40;0.20;;;;;;;21.34;62.39;95309.22;5111919;28;20467;-59
2023/08/10 01:46:47;;;;;;;0.40;0.30;;;;;;;21.06;63.66;95315.56;5112448;28;20435;-58
2023/08/10 01:49:19;;;;;;;0.40;0.30;;;;;;;21.12;62.63;95308.88;5111740;28;20482;-58
2023/08/10 01:51:50;;;;;;;0.40;0.20;;;;;;;21.07;62.81;95317.97;5112213;28;20440;-58
2023/08/10 01:54:21;;;;;;;0.43;0.27;;;;;;;21.32;61.31;95307.97;5098116;28;20472;-58
2023/08/10 01:56:49;;;;;;;0.40;0.30;;;;;;;21.39;62.28;95314.38;5111788;28;20510;-58
2023/08/10 01:59:19;;;;;;;0.40;0.20;;;;;;;21.28;61.57;95304.34;5111676;28;20436;-58
2023/08/10 02:01:48;;;;;;;0.50;0.40;;;;;;;21.21;61.46;95309.53;5111593;28;20463;-59
2023/08/10 02:04:17;;;;;;;0.40;0.27;;;;;;;21.17;61.28;95314.81;5112044;28;20887;-58
2023/08/10 02:06:45;;;;;;;0.40;0.20;;;;;;;21.36;61.22;95308.84;5111724;28;20444;-58
2023/08/10 02:09:13;;;;;;;0.50;0.30;;;;;;;21.30;61.85;95294.81;5111925;28;20427;-58
2023/08/10 02:11:42;;;;;;;0.40;0.27;;;;;;;21.23;61.71;95302.69;5111996;28;20443;-58
2023/08/10 02:14:10;;;;;;;0.50;0.40;;;;;;;21.21;61.85;95313.00;5111916;28;20534;-58
2023/08/10 02:16:40;;;;;;;0.40;0.20;;;;;;;20.97;62.41;95312.19;5111895;28;20957;-58
2023/08/10 02:19:08;;;;;;;0.50;0.40;;;;;;;21.16;62.23;95313.25;5111757;28;20862;-58
2023/08/10 02:21:36;;;;;;;0.40;0.30;;;;;;;21.09;63.25;95317.59;5111859;28;20945;-58
2023/08/10 02:24:05;;;;;;;0.50;0.40;;;;;;;20.99;63.51;95321.50;5111664;28;20539;-58
2023/08/10 02:26:34;;;;;;;0.40;0.30;;;;;;;20.97;63.71;95314.88;5112246;28;20527;-58
2023/08/10 02:29:03;;;;;;;0.50;0.30;;;;;;;20.85;64.01;95318.31;5084828;28;20443;-59
2023/08/10 02:31:33;;;;;;;0.50;0.40;;;;;;;20.91;63.74;95319.69;5113068;28;20440;-58
2023/08/10 02:34:03;;;;;;;0.40;0.20;;;;;;;20.84;64.04;95320.25;5115399;28;20554;-59
2023/08/10 02:36:31;;;;;;;0.67;0.67;;;;;;;21.03;63.43;95327.00;5115598;28;20440;-58
2023/08/10 02:39:00;;;;;;;0.40;0.30;;;;;;;21.04;63.64;95326.66;5115672;28;20435;-59
2023/08/10 02:41:29;;;;;;;0.50;0.30;;;;;;;20.90;63.88;95323.50;5115472;28;20512;-59
2023/08/10 02:43:57;;;;;;;0.50;0.30;;;;;;;21.00;63.52;95333.06;5115380;28;20865;-59
2023/08/10 02:46:25;;;;;;;0.50;0.30;;;;;;;21.07;63.88;95330.63;5115219;28;20526;-59
2023/08/10 02:48:54;;;;;;;0.47;0.30;;;;;;;21.06;64.54;95332.53;5115191;28;20516;-59
2023/08/10 02:51:24;;;;;;;0.40;0.30;;;;;;;21.01;64.89;95331.94;5115755;28;20847;-59
2023/08/10 02:53:52;;;;;;;0.40;0.30;;;;;;;21.09;63.58;95326.50;5114949;28;20443;-57
2023/08/10 02:56:20;;;;;;;0.40;0.20;;;;;;;20.86;64.22;95323.38;5115149;28;20535;-59
2023/08/10 02:58:49;;;;;;;0.40;0.20;;;;;;;20.96;62.71;95327.56;5115336;28;20469;-59
2023/08/10 03:01:17;;;;;;;0.40;0.20;;;;;;;20.94;63.21;95326.31;5115199;28;20463;-58
2023/08/10 03:03:45;;;;;;;0.97;0.43;;;;;;;20.73;64.76;95332.56;5115018;28;20436;-59
2023/08/10 03:06:14;;;;;;;0.40;0.20;;;;;;;20.79;63.67;95333.13;5114983;28;20439;-59
2023/08/10 03:08:43;;;;;;;0.50;0.30;;;;;;;20.82;64.80;95332.47;5115587;28;20857;-60
2023/08/10 03:11:12;;;;;;;0.40;0.20;;;;;;;20.89;63.76;95340.78;5089430;28;20440;-60
2023/08/10 03:13:40;;;;;;;0.40;0.30;;;;;;;20.88;64.23;95320.34;5114888;28;20522;-60
2023/08/10 03:16:09;;;;;;;0.50;0.37;;;;;;;20.87;64.32;95324.19;5114355;28;20528;-60
2023/08/10 03:18:37;;;;;;;0.50;0.30;;;;;;;20.91;63.94;95322.38;5114683;28;20447;-60
2023/08/10 03:21:05;;;;;;;0.40;0.30;;;;;;;20.87;63.45;95326.88;5115271;28;20451;-59
2023/08/10 03:23:34;;;;;;;0.50;0.40;;;;;;;19.92;66.39;95332.28;5114887;28;20435;-60
2023/08/10 03:26:04;;;;;;;0.53;0.37;;;;;;;20.15;66.55;95332.75;5114996;28;20504;-60
2023/08/10 03:28:32;;;;;;;0.40;0.20;;;;;;;20.27;66.57;95322.84;5114544;28;20471;-60
2023/08/10 03:31:00;;;;;;;0.50;0.30;;;;;;;20.53;65.13;95329.91;5115108;28;20510;-59
2023/08/10 03:33:29;;;;;;;0.70;0.50;;;;;;;20.58;65.01;95327.78;5114780;28;20436;-60
2023/08/10 03:35:57;;;;;;;0.40;0.30;;;;;;;20.68;63.93;95332.75;5115029;27;20881;-59
2023/08/10 03:38:25;;;;;;;0.50;0.40;;;;;;;20.67;64.76;95333.09;5114335;28;20427;-59
2023/08/10 03:40:53;;;;;;;0.50;0.30;;;;;;;20.73;64.33;95334.44;5114188;28;20948;-59
2023/08/10 03:43:23;;;;;;;0.40;0.20;;;;;;;20.84;63.78;95331.03;5113181;28;20490;-60
2023/08/10 03:45:51;;;;;;;0.50;0.30;;;;;;;20.68;65.15;95332.75;5114012;28;20512;-59
2023/08/10 03:48:20;;;;;;;0.40;0.30;;;;;;;20.72;62.72;95335.59;5114065;28;20480;-58
2023/08/10 03:50:49;;;;;;;0.50;0.40;;;;;;;20.31;62.96;95323.00;5113828;28;20455;-58
2023/08/10 03:53:19;;;;;;;0.97;0.97;;;;;;;19.87;65.47;95339.75;5087410;28;20644;-68
2023/08/10 03:55:47;;;;;;;0.40;0.30;;;;;;;20.34;65.31;95332.31;5113666;28;20557;-57
2023/08/10 03:58:15;;;;;;;0.43;0.30;;;;;;;20.59;63.80;95312.44;5113744;28;20938;-57
2023/08/10 04:00:45;;;;;;;0.40;0.30;;;;;;;20.71;64.51;95313.25;5113990;28;20459;-56
2023/08/10 04:03:15;;;;;;;0.40;0.23;;;;;;;20.90;67.25;95328.88;5113059;28;21078;-54
2023/08/10 04:05:44;;;;;;;0.60;0.60;;;;;;;21.15;64.45;95329.75;5113734;27;20436;-54
2023/08/10 04:08:13;;;;;;;0.40;0.30;;;;;;;21.56;66.01;95316.03;5113822;28;20435;-55
2023/08/10 04:10:41;;;;;;;0.40;0.23;;;;;;;21.60;61.55;95308.88;5113009;28;20443;-54
2023/08/10 04:13:09;;;;;;;0.50;0.30;;;;;;;21.63;62.39;95315.50;5113878;28;20448;-54
2023/08/10 04:15:38;;;;;;;0.40;0.30;;;;;;;21.79;63.15;95313.66;5113826;28;20563;-54
2023/08/10 04:18:07;;;;;;;0.60;0.60;;;;;;;21.52;63.52;95313.25;5113177;28;20475;-54
2023/08/10 04:20:36;;;;;;;0.50;0.50;;;;;;;21.26;64.82;95320.88;5112382;28;20447;-54
2023/08/10 04:23:05;;;;;;;0.43;0.30;;;;;;;20.99;68.56;95321.50;5113470;28;20826;-54
2023/08/10 04:25:33;;;;;;;0.60;0.50;;;;;;;20.38;71.46;95333.22;5113406;28;20428;-54
2023/08/10 04:28:02;;;;;;;0.50;0.30;;;;;;;20.58;71.70;95311.63;5113633;28;20467;-55
2023/08/10 04:30:31;;;;;;;0.50;0.30;;;;;;;20.39;71.82;95307.88;5113102;28;20508;-54
2023/08/10 04:32:59;;;;;;;0.40;0.30;;;;;;;20.74;71.05;95319.88;5113138;28;20458;-54
2023/08/10 04:35:29;;;;;;;4.83;0.57;;;;;;;21.23;70.34;95321.56;5112982;28;20471;-55
2023/08/10 04:37:57;;;;;;;0.40;0.30;;;;;;;21.32;68.43;95321.44;5113060;27;20432;-54
2023/08/10 04:40:26;;;;;;;0.50;0.40;;;;;;;21.15;68.73;95330.53;5112774;28;20447;-54
2023/08/10 04:42:55;;;;;;;0.60;0.40;;;;;;;21.45;67.82;95320.34;5112640;28;20447;-54
2023/08/10 04:45:23;;;;;;;0.47;0.30;;;;;;;21.47;68.40;95316.19;5113081;28;20432;-55
2023/08/10 04:47:52;;;;;;;0.50;0.37;;;;;;;21.43;66.09;95295.59;5112518;27;20436;-56
2023/08/10 04:50:21;;;;;;;0.50;0.40;;;;;;;21.02;68.14;95311.97;5113050;28;20500;-55
2023/08/10 04:52:51;;;;;;;0.47;0.30;;;;;;;21.46;68.33;95311.91;5113152;27;20497;-56
2023/08/10 04:55:20;;;;;;;0.40;0.30;;;;;;;21.73;66.50;95309.63;5112890;28;20464;-56
2023/08/10 04:57:48;;;;;;;0.67;0.40;;;;;;;21.74;66.35;95319.28;5112267;28;20435;-54
2023/08/10 05:00:18;;;;;;;0.40;0.30;;;;;;;21.87;65.44;95326.28;5112964;28;20448;-57
2023/08/10 05:02:46;;;;;;;0.40;0.30;;;;;;;21.92;64.98;95331.44;5112861;28;20442;-54
2023/08/10 05:05:15;;;;;;;0.50;0.30;;;;;;;22.07;64.58;95328.03;5112928;28;20435;-55
2023/08/10 05:07:43;;;;;;;1.17;0.50;;;;;;;22.03;63.88;95313.66;5112478;28;20500;-55
2023/08/10 05:10:13;;;;;;;0.67;0.57;;;;;;;21.96;63.75;95325.00;5112684;28;21091;-56
2023/08/10 05:12:42;;;;;;;0.40;0.30;;;;;;;22.09;64.63;95325.75;5112352;28;20454;-55
2023/08/10 05:15:12;;;;;;;0.40;0.30;;;;;;;22.24;63.79;95335.09;5112037;28;20439;-56
2023/08/10 05:17:41;;;;;;;0.60;0.40;;;;;;;22.33;63.16;95333.81;5086319;28;20440;-59
2023/08/10 05:20:13;;;;;;;0.50;0.47;;;;;;;22.28;63.68;95334.06;5098497;28;20445;-52
2023/08/10 05:22:42;;;;;;;0.53;0.37;;;;;;;22.17;63.95;95342.94;5112576;28;20443;-54
2023/08/10 05:25:14;;;;;;;0.90;0.73;;;;;;;22.04;65.07;95340.28;5112021;27;20444;-53
2023/08/10 05:27:46;;;;;;;1.00;0.70;;;;;;;21.75;65.98;95345.16;5112626;28;20442;-53
2023/08/10 05:30:15;;;;;;;0.50;0.30;;;;;;;21.81;65.70;95354.56;5111776;28;20489;-53
2023/08/10 05:32:44;;;;;;;0.70;0.30;;;;;;;21.74;67.11;95363.25;5100999;28;20970;-53
2023/08/10 05:35:14;;;;;;;0.40;0.30;;;;;;;21.61;68.28;95364.38;5109548;28;21023;-53
2023/08/10 05:37:43;;;;;;;3.90;0.43;;;;;;;21.16;69.00;95369.84;5111689;28;20493;-53
2023/08/10 05:40:13;;;;;;;0.67;0.40;;;;;;;20.87;72.24;95372.69;5111461;28;20952;-53
2023/08/10 05:42:43;;;;;;;0.50;0.50;;;;;;;20.87;71.60;95367.28;5111662;28;20451;-52
2023/08/10 05:45:15;;;;;;;0.60;0.40;;;;;;;20.74;70.47;95384.53;5112075;28;20493;-52
2023/08/10 05:47:45;;;;;;;1.60;0.47;;;;;;;20.68;69.40;95386.63;5111697;28;20447;-52
2023/08/10 05:50:15;;;;;;;0.47;0.33;;;;;;;20.51;69.51;95377.91;5111691;28;20527;-52
2023/08/10 05:52:43;;;;;;;1.53;1.00;;;;;;;20.62;69.10;95387.94;5111895;28;20442;-52
2023/08/10 05:55:14;;;;;;;0.60;0.50;;;;;;;21.13;67.97;95388.56;5111565;28;20447;-53
2023/08/10 05:57:43;;;;;;;0.50;0.40;;;;;;;21.07;67.33;95388.03;5111601;28;20476;-52
2023/08/10 06:00:13;;;;;;;1.00;0.60;;;;;;;21.27;68.71;95386.38;5111737;28;20504;-53
2023/08/10 06:02:42;;;;;;;0.90;0.60;;;;;;;20.92;66.13;95387.84;5111124;28;20540;-52
2023/08/10 06:05:12;;;;;;;0.40;0.30;;;;;;;20.74;67.19;95400.69;5110785;28;20526;-53
2023/08/10 06:07:41;;;;;;;0.47;0.33;;;;;;;20.96;65.47;95402.22;5110977;28;20442;-52
2023/08/10 06:10:09;;;;;;;0.60;0.60;;;;;;;21.01;65.61;95413.56;5111384;28;20937;-52
2023/08/10 06:12:39;;;;;;;0.40;0.30;;;;;;;21.35;64.56;95402.44;5111702;28;20504;-52
2023/08/10 06:15:08;;;;;;;0.40;0.30;;;;;;;21.61;63.76;95406.72;5107766;28;20980;-52
2023/08/10 06:17:37;;;;;;;0.60;0.30;;;;;;;21.67;63.49;95386.50;5111466;28;20997;-52
2023/08/10 06:20:09;;;;;;;0.50;0.30;;;;;;;21.71;61.59;95411.69;5111707;28;20468;-52
2023/08/10 06:22:39;;;;;;;0.87;0.60;;;;;;;22.04;61.70;95418.56;5104093;28;20439;-52
2023/08/10 06:25:09;;;;;;;0.40;0.30;;;;;;;22.21;62.07;95419.47;5105929;28;20496;-52
2023/08/10 06:27:39;;;;;;;1.13;0.50;;;;;;;21.90;60.82;95420.03;5111414;28;20497;-52
2023/08/10 06:30:09;;;;;;;0.40;0.20;;;;;;;21.72;61.90;95432.16;5111515;28;20502;-52
2023/08/10 06:32:38;;;;;;;3.33;0.40;;;;;;;21.86;61.50;95429.91;5111417;28;20546;-52
2023/08/10 06:35:08;;;;;;;0.40;0.30;;;;;;;21.57;61.95;95433.59;5111230;28;20972;-53
2023/08/10 06:37:37;;;;;;;4.20;0.67;;;;;;;21.49;62.37;95437.97;5111743;28;20475;-52
2023/08/10 06:40:08;;;;;;;0.57;0.40;;;;;;;21.31;62.35;95447.38;5111460;28;20468;-52
2023/08/10 06:42:38;;;;;;;0.93;0.60;;;;;;;21.39;63.37;95449.19;5111601;28;20507;-55
2023/08/10 06:45:09;;;;;;;0.50;0.30;;;;;;;21.06;64.05;95456.50;5110942;28;20773;-63
2023/08/10 06:47:38;;;;;;;0.40;0.37;;;;;;;20.94;64.80;95455.66;5111118;28;20934;-60
2023/08/10 06:50:08;;;;;;;0.60;0.40;;;;;;;21.21;64.90;95452.41;5111235;28;20518;-64
2023/08/10 06:52:37;;;;;;;0.50;0.30;;;;;;;21.07;64.89;95465.41;5111061;28;20515;-63
2023/08/10 06:55:06;;;;;;;0.50;0.40;;;;;;;20.95;65.44;95471.47;5111291;28;20489;-61
2023/08/10 06:57:36;;;;;;;0.50;0.50;;;;;;;21.16;65.75;95474.16;5110921;28;20914;-62
2023/08/10 07:00:07;;;;;;;0.40;0.30;;;;;;;21.03;65.16;95465.22;5111191;28;20431;-62
2023/08/10 07:02:41;;;;;;;0.50;0.30;;;;;;;21.01;68.08;95505.19;5111642;28;20472;-62
2023/08/10 07:05:10;;;;;;;0.50;0.33;;;;;;;20.42;70.92;95512.59;5110913;28;20442;-61
2023/08/10 07:07:38;;;;;;;1.37;0.40;;;;;;;20.16;73.66;95530.78;5110561;28;20519;-60
2023/08/10 07:10:09;;;;;;;0.50;0.40;;;;;;;19.69;81.81;95530.00;5111243;28;20435;-60
2023/08/10 07:12:37;;;;;;;0.43;0.30;;;;;;;19.76;86.63;95519.53;5111201;28;20497;-57
2023/08/10 07:15:08;;;;;;;0.50;0.37;;;;;;;19.78;93.59;95525.41;5111238;28;20815;-57
2023/08/10 07:17:36;;;;;;;0.40;0.30;;;;;;;19.51;100.00;95540.00;5111841;28;20479;-56
2023/08/10 07:20:08;;;;;;;0.60;0.50;;;;;;;19.18;100.00;95548.88;5113936;28;20432;-57
2023/08/10 07:22:37;;;;;;;0.50;0.37;;;;;;;18.97;100.00;95557.56;5114556;28;20454;-56
2023/08/10 07:25:08;;;;;;;0.47;0.30;;;;;;;18.94;100.00;95563.59;5114690;28;20799;-57
2023/08/10 07:27:37;;;;;;;0.50;0.40;;;;;;;18.40;100.00;95574.84;5114897;28;20440;-57
2023/08/10 07:30:06;;;;;;;1.40;0.60;;;;;;;18.40;100.00;95564.91;5114920;28;20957;-57
2023/08/10 07:32:35;;;;;;;0.53;0.53;;;;;;;18.59;100.00;95558.50;5114696;27;20505;-58
2023/08/10 07:35:04;;;;;;;0.70;0.63;;;;;;;18.89;100.00;95550.34;5114899;28;20440;-57
2023/08/10 07:37:35;;;;;;;0.50;0.40;;;;;;;18.85;100.00;95549.38;5114913;28;20601;-57
2023/08/10 07:40:05;;;;;;;0.50;0.37;;;;;;;19.03;100.00;95547.47;5114712;28;20502;-57
2023/08/10 07:42:33;;;;;;;0.60;0.30;;;;;;;19.09;100.00;95556.16;5114575;28;20501;-58
2023/08/10 07:45:01;;;;;;;0.50;0.30;;;;;;;18.74;100.00;95564.22;5114063;28;20460;-58
2023/08/10 07:47:30;;;;;;;4.33;0.40;;;;;;;18.66;100.00;95554.25;5114634;28;20488;-58
2023/08/10 07:49:58;;;;;;;0.50;0.40;;;;;;;18.65;100.00;95560.72;5114265;28;20443;-60
2023/08/10 07:52:26;;;;;;;0.43;0.30;;;;;;;18.72;100.00;95554.91;5114264;28;20439;-60
2023/08/10 07:54:56;;;;;;;0.50;0.40;;;;;;;18.66;100.00;95548.09;5114041;28;20440;-59
2023/08/10 07:57:24;;;;;;;0.60;0.30;;;;;;;18.98;100.00;95532.31;5113972;28;20463;-58
2023/08/10 07:59:53;;;;;;;0.87;0.87;;;;;;;19.20;100.00;95542.06;5114232;28;20522;-59
2023/08/10 08:02:21;;;;;;;0.60;0.40;;;;;;;18.70;100.00;95539.09;5113535;27;20497;-59
2023/08/10 08:04:50;;;;;;;0.57;0.50;;;;;;;18.23;100.00;95538.03;5113800;28;20450;-59
2023/08/10 08:07:21;;;;;;;0.50;0.40;;;;;;;18.45;100.00;95539.81;5113942;28;20444;-58
2023/08/10 08:09:49;;;;;;;0.50;0.30;;;;;;;18.66;100.00;95537.34;5114329;28;20435;-58
2023/08/10 08:12:19;;;;;;;1.60;0.67;;;;;;;18.69;100.00;95534.84;5113405;28;20443;-58
2023/08/10 08:14:47;;;;;;;0.40;0.30;;;;;;;18.78;100.00;95535.63;5114330;28;20519;-58
2023/08/10 08:17:16;;;;;;;1.27;0.40;;;;;;;18.96;100.00;95544.47;5113384;28;20511;-58
2023/08/10 08:19:44;;;;;;;0.40;0.30;;;;;;;19.08;100.00;95544.63;5113906;28;20508;-59
2023/08/10 08:22:12;;;;;;;0.47;0.30;;;;;;;19.06;100.00;95544.16;5113288;28;20944;-58
2023/08/10 08:24:41;;;;;;;0.40;0.20;;;;;;;18.95;100.00;95565.16;5114077;28;20497;-58
2023/08/10 08:27:09;;;;;;;1.93;1.83;;;;;;;19.04;100.00;95554.44;5113776;28;20428;-60
2023/08/10 08:29:39;;;;;;;0.40;0.20;;;;;;;19.37;100.00;95555.56;5113248;28;20436;-60
2023/08/10 08:32:07;;;;;;;0.40;0.30;;;;;;;18.88;100.00;95556.78;5113511;28;20501;-59
2023/08/10 08:34:38;;;;;;;0.40;0.40;;;;;;;18.88;100.00;95559.47;5113836;28;20855;-54
2023/08/10 08:37:06;;;;;;;0.40;0.30;;;;;;;18.86;100.00;95561.69;5113465;28;20482;-54
2023/08/10 08:39:35;;;;;;;0.40;0.20;;;;;;;19.51;100.00;95563.41;5112854;28;20436;-54
2023/08/10 08:42:03;;;;;;;3.33;0.40;;;;;;;19.48;100.00;95564.84;5113264;28;20516;-53
2023/08/10 08:44:32;;;;;;;0.40;0.30;;;;;;;19.25;100.00;95559.97;5113511;28;20440;-54
2023/08/10 08:47:02;;;;;;;0.40;0.30;;;;;;;18.99;100.00;95565.34;5112781;28;20442;-54
2023/08/10 08:49:30;;;;;;;0.50;0.40;;;;;;;19.06;100.00;95559.47;5112648;28;20546;-52
2023/08/10 08:51:59;;;;;;;0.53;0.53;;;;;;;19.42;100.00;95550.00;5113506;28;20523;-53
2023/08/10 08:54:27;;;;;;;0.50;0.30;;;;;;;19.51;100.00;95558.03;5112593;28;20452;-54
2023/08/10 08:56:55;;;;;;;0.60;0.40;;;;;;;19.17;100.00;95564.22;5113236;28;20440;-53
2023/08/10 08:59:24;;;;;;;0.40;0.30;;;;;;;19.58;100.00;95558.38;5112303;28;20922;-52
2023/08/10 09:01:52;;;;;;;0.40;0.30;;;;;;;20.03;100.00;95564.88;5113009;28;20439;-53
2023/08/10 09:04:25;;;;;;;0.40;0.30;;;;;;;20.26;100.00;95566.19;5112670;28;20434;-52
2023/08/10 09:06:53;;;;;;;0.40;0.20;;;;;;;20.25;100.00;95561.94;5112769;28;20570;-52
2023/08/10 09:09:22;;;;;;;0.67;0.30;;;;;;;20.58;100.00;95561.28;5112257;28;20439;-52
2023/08/10 09:11:50;;;;;;;0.40;0.20;;;;;;;20.80;98.35;95563.69;5113204;28;20941;-52
2023/08/10 09:14:19;;;;;;;0.40;0.30;;;;;;;20.75;100.00;95558.47;5111584;28;20436;-52
2023/08/10 09:16:47;;;;;;;0.50;0.30;;;;;;;20.64;99.64;95566.19;5112443;28;20436;-53
2023/08/10 09:19:15;;;;;;;0.40;0.20;;;;;;;21.00;100.00;95556.75;5086854;28;20471;-53
2023/08/10 09:21:46;;;;;;;0.40;0.30;;;;;;;20.63;99.33;95574.56;5112298;28;20467;-54
2023/08/10 09:24:15;;;;;;;0.40;0.30;;;;;;;20.65;100.00;95575.81;5112926;28;20444;-53
2023/08/10 09:26:43;;;;;;;0.60;0.40;;;;;;;20.70;100.00;95572.16;5112261;28;20440;-54
2023/08/10 09:29:12;;;;;;;0.50;0.30;;;;;;;20.93;100.00;95570.72;5112502;28;20444;-53
2023/08/10 09:31:43;;;;;;;0.40;0.30;;;;;;;20.88;100.00;95554.75;5098713;28;20527;-53
2023/08/10 09:34:13;;;;;;;0.40;0.20;;;;;;;20.84;100.00;95567.31;5112591;28;20928;-53
2023/08/10 09:36:54;;;;;;;0.50;0.20;;;;;;;20.94;97.09;95566.13;5112484;27;20436;-53
2023/08/10 09:39:22;;;;;;;0.40;0.30;;;;;;;20.56;100.00;95571.59;5112029;28;20566;-53
2023/08/10 09:41:55;;;;;;;0.40;0.30;;;;;;;20.57;100.00;95563.19;5111841;28;20945;-53
2023/08/10 09:44:23;;;;;;;0.40;0.30;;;;;;;20.46;100.00;95566.59;5111489;28;20444;-53
2023/08/10 09:46:57;;;;;;;0.50;0.30;;;;;;;20.84;97.95;95570.00;5112688;28;20528;-53
2023/08/10 09:49:26;;;;;;;1.03;0.37;;;;;;;21.07;92.08;95562.41;5111237;28;21045;-53
2023/08/10 09:52:00;;;;;;;1.63;0.30;;;;;;;20.94;95.78;95563.44;5112317;28;20443;-53
2023/08/10 09:54:29;;;;;;;0.83;0.83;;;;;;;20.97;89.85;95568.16;5112115;28;20463;-54
2023/08/10 09:56:58;;;;;;;0.40;0.20;;;;;;;20.82;97.94;95561.47;5112238;28;20440;-54
2023/08/10 09:59:27;;;;;;;0.50;0.50;;;;;;;20.59;100.00;95563.66;5111764;28;20995;-58
2023/08/10 10:01:56;;;;;;;0.40;0.30;;;;;;;20.50;100.00;95572.91;5112513;28;20462;-58
2023/08/10 10:04:26;;;;;;;1.03;0.50;;;;;;;20.72;100.00;95575.31;5111261;28;20493;-57
2023/08/10 10:06:57;;;;;;;0.40;0.30;;;;;;;20.83;100.00;95568.41;5112329;28;20475;-57
2023/08/10 10:09:29;;;;;;;0.50;0.30;;;;;;;20.91;94.01;95570.28;5111855;28;20972;-57
2023/08/10 10:12:01;;;;;;;0.50;0.30;;;;;;;20.75;97.43;95570.06;5112136;28;20432;-57
2023/08/10 10:14:30;;;;;;;1.33;1.23;;;;;;;20.63;98.64;95577.25;5111412;28;20445;-57
2023/08/10 10:17:00;;;;;;;1.37;0.60;;;;;;;20.58;100.00;95575.56;5111931;28;20436;-58
2023/08/10 10:19:28;;;;;;;0.60;0.30;;;;;;;20.78;100.00;95585.56;5111848;28;20471;-58
2023/08/10 10:21:57;;;;;;;0.60;0.60;;;;;;;20.80;100.00;95583.34;5111661;28;20937;-58
2023/08/10 10:24:31;;;;;;;1.13;0.30;;;;;;;20.48;100.00;95572.44;5111860;28;20803;-52
2023/08/10 10:27:00;;;;;;;0.50;0.40;;;;;;;20.33;100.00;95575.69;5112126;28;20440;-54
2023/08/10 10:29:40;;;;;;;0.60;0.60;;;;;;;19.87;100.00;95519.97;5111883;28;20446;-54
2023/08/10 10:32:13;;;;;;;0.50;0.40;;;;;;;20.24;100.00;95513.81;5086411;28;20471;-54
2023/08/10 10:34:43;;;;;;;0.60;0.43;;;;;;;20.65;100.00;95573.13;5111270;28;20440;-54
2023/08/10 10:37:14;;;;;;;7.37;0.40;;;;;;;21.08;100.00;95556.69;5111385;28;20945;-51
2023/08/10 10:39:46;;;;;;;0.70;0.60;;;;;;;20.72;100.00;95553.78;5111285;28;20489;-51
2023/08/10 10:42:17;;;;;;;0.40;0.30;;;;;;;20.78;100.00;95552.44;5111268;28;20534;-51
2023/08/10 10:45:03;;;;;;;0.40;0.40;;;;;;;20.72;100.00;95543.00;5111595;28;20443;-50
2023/08/10 10:47:36;;;;;;;0.80;0.50;;;;;;;20.75;100.00;95542.31;5111590;28;20519;-50
2023/08/10 10:50:19;;;;;;;0.67;0.43;;;;;;;21.13;100.00;95536.81;5111512;28;20451;-51
2023/08/10 10:52:55;;;;;;;0.83;0.80;;;;;;;21.39;100.00;95530.09;5113859;28;20514;-50
2023/08/10 10:55:27;;;;;;;0.40;0.20;;;;;;;20.97;100.00;95508.88;5115363;28;20435;-50
2023/08/10 10:57:55;;;;;;;0.40;0.27;;;;;;;21.45;100.00;95511.81;5115052;28;20500;-50
2023/08/10 11:00:25;;;;;;;0.50;0.40;;;;;;;21.68;100.00;95525.69;5113978;28;21004;-50
2023/08/10 11:02:54;;;;;;;0.50;0.47;;;;;;;21.09;100.00;95523.22;5114983;28;20469;-50
2023/08/10 11:05:23;;;;;;;0.50;0.40;;;;;;;20.70;100.00;95524.44;5115227;28;20462;-50
2023/08/10 11:07:52;;;;;;;2.97;1.63;;;;;;;21.21;100.00;95495.53;5114847;28;20836;-50
2023/08/10 11:10:23;;;;;;;1.33;0.50;;;;;;;21.36;100.00;95513.78;5114501;28;20940;-50
2023/08/10 11:12:52;;;;;;;0.40;0.30;;;;;;;21.82;100.00;95499.16;5115152;28;20467;-50
2023/08/10 11:15:23;;;;;;;0.40;0.30;;;;;;;22.42;97.24;95506.50;5114656;28;20957;-50
2023/08/10 11:17:54;;;;;;;0.97;0.40;;;;;;;21.63;98.62;95498.91;5106671;28;20440;-51
2023/08/10 11:20:23;;;;;;;0.40;0.30;;;;;;;21.31;100.00;95495.91;5110294;28;20580;-57
2023/08/10 11:22:52;;;;;;;0.60;0.30;;;;;;;21.26;100.00;95492.63;5114740;28;20436;-57
2023/08/10 11:25:23;;;;;;;0.50;0.40;;;;;;;21.80;99.88;95494.13;5114688;28;20443;-56
2023/08/10 11:27:56;;;;;;;0.40;0.30;;;;;;;21.18;97.72;95426.91;5103999;28;20448;-55
2023/08/10 11:30:25;;;;;;;0.47;0.33;;;;;;;22.11;95.76;95478.16;5113288;28;20996;-55
2023/08/10 11:32:55;;;;;;;0.50;0.30;;;;;;;22.57;83.84;95459.88;5114936;28;20431;-55
2023/08/10 11:35:25;;;;;;;13.23;0.50;;;;;;;21.90;86.08;95471.31;5114494;28;20828;-55
2023/08/10 11:37:54;;;;;;;3.27;0.60;;;;;;;22.05;87.81;95484.94;5114497;28;20448;-54
2023/08/10 11:40:23;;;;;;;1.90;0.40;;;;;;;22.71;86.38;95490.84;5114579;27;21041;-55
2023/08/10 11:43:07;;;;;;;0.50;0.30;;;;;;;23.82;76.25;95498.94;5114272;28;20481;-56